Minerva Anna — SVNP — position and weather

sailwx.info

Track history (hours):
 
Tides and Currents Weather Stations Pressure Air Temp Water Temp Dewpoint Dewpoint Depression Visibility Wind Speed Wind Dir Waves Ship Positions

Minerva Anna

Last reported at 2016-Dec-03 19:33 UTC. Time now 2016-Dec-03 19:39 UTC.
Position N 51°05' E 001°30'.

Length 183 m; draft 13 m.

Type: Ship (hazmat cat A). MMSI: 240729000.

Date/timePositionNaut miles runAvg speedWind from/ knotsBaromVisibWave heightAir tempDewpointWater temp
2016-Dec-03 19:33N 51°05' E 001°30'1313.2
2016-Dec-03 18:34N 51°14' E 001°46'1211.7
2016-Dec-03 17:33N 51°24' E 001°56'1110.8
2016-Dec-03 16:33N 51°33' E 002°06'1110.6
2016-Dec-03 15:33N 51°41' E 002°17'1110.7
2016-Dec-03 14:33N 51°49' E 002°29'1211.5
2016-Dec-03 13:33N 51°59' E 002°37'1412.9
2016-Dec-03 12:30N 52°13' E 002°41'1413.4
2016-Dec-03 11:29N 52°25' E 002°49'1813.6
2016-Dec-03 10:11N 52°41' E 003°03'1013.3
2016-Dec-03 09:27N 52°50' E 003°11'2512.1
2016-Dec-03 07:23N 53°13' E 003°24'1111.4
2016-Dec-03 06:26N 53°24' E 003°30'1111.3
2016-Dec-03 05:29N 53°34' E 003°35'33711.7
2016-Dec-02 00:33N 57°47' E 010°11'1111.4
2016-Dec-01 23:33N 57°48' E 010°32'9 8.5
2016-Dec-01 22:33N 57°46' E 010°47'7 7.3
2016-Dec-01 21:33N 57°40' E 010°40'0 0.2
2016-Dec-01 20:33N 57°40' E 010°40'0 0.0
2016-Dec-01 19:33N 57°40' E 010°40'0 0.0
2016-Dec-01 18:27N 57°40' E 010°40'0 0.0
2016-Dec-01 17:18N 57°40' E 010°40'0 0.2
2016-Dec-01 16:33N 57°40' E 010°40'0 0.1
2016-Dec-01 15:33N 57°40' E 010°40'0 0.0
2016-Dec-01 13:30N 57°40' E 010°40'0 0.0
2016-Dec-01 12:33N 57°40' E 010°40'1 1.4
2016-Dec-01 11:33N 57°39' E 010°43'1010.1
2016-Dec-01 10:33N 57°35' E 010°60'1212.1
2016-Dec-01 09:33N 57°30' E 011°21'1212.1
2016-Dec-01 08:33N 57°19' E 011°31'1312.7
2016-Dec-01 07:33N 57°08' E 011°39'7311.9
2016-Dec-01 01:27N 55°58' E 011°01'1111.0
2016-Dec-01 00:28N 55°50' E 010°49'  
2016-Nov-28 09:33N 56°05' E 011°07'5212.8
2016-Nov-28 05:28N 56°52' E 011°48'1313.6
2016-Nov-28 04:33N 57°04' E 011°40'1313.5
2016-Nov-28 03:33N 57°16' E 011°32'1313.4
2016-Nov-28 02:34N 57°29' E 011°22'1312.8
2016-Nov-28 01:33N 57°38' E 011°05'1212.1
2016-Nov-28 00:33N 57°46' E 010°48'10 9.9
2016-Nov-27 23:33N 57°47' E 010°30'1411.7
2016-Nov-27 22:19N 57°45' E 010°03'18012.8
2016-Nov-27 08:19N 55°28' E 006°31'7210.4
2016-Nov-27 01:22N 54°26' E 005°28'910.9
2016-Nov-27 00:34N 54°18' E 005°21'1111.4
2016-Nov-26 23:33N 54°08' E 005°11'1211.7
2016-Nov-26 22:33N 53°57' E 005°05'8 7.6
2016-Nov-26 21:33N 53°50' E 005°01'6 6.5
2016-Nov-26 20:33N 53°44' E 004°58'1 1.2
2016-Nov-26 19:33N 53°44' E 004°57'6 5.7
2016-Nov-26 18:33N 53°40' E 004°52'10 9.7
2016-Nov-26 17:33N 53°30' E 004°46'1211.9
2016-Nov-26 16:33N 53°20' E 004°38'1413.9
2016-Nov-26 15:33N 53°07' E 004°28'1313.3
2016-Nov-26 14:33N 52°55' E 004°18'1414.4
2016-Nov-26 13:33N 52°44' E 004°04'1414.5
2016-Nov-26 12:33N 52°33' E 003°48'1413.7
2016-Nov-26 11:34N 52°24' E 003°31'1414.2
2016-Nov-26 10:33N 52°14' E 003°15'1413.6
2016-Nov-26 09:33N 52°03' E 003°00'1312.9
2016-Nov-26 08:33N 51°54' E 002°46'1212.4
2016-Nov-26 07:33N 51°44' E 002°33'1111.0
2016-Nov-26 06:33N 51°35' E 002°23'1110.5
2016-Nov-26 05:33N 51°27' E 002°13'8 8.0
2016-Nov-26 04:33N 51°22' E 002°22'1413.5
2016-Nov-26 03:33N 51°22' E 002°44'1313.1
2016-Nov-26 02:34N 51°24' E 003°05'1514.7
2016-Nov-26 01:34N 51°25' E 003°28'10 9.6
2016-Nov-26 00:34N 51°25' E 003°44'0 0.0
2016-Nov-25 23:31N 51°25' E 003°44'0 0.0
2016-Nov-25 22:31N 51°25' E 003°44'0 0.0
2016-Nov-25 21:31N 51°25' E 003°44'0 0.0
2016-Nov-25 20:31N 51°25' E 003°44'0 0.0
2016-Nov-25 19:31N 51°25' E 003°44'0 0.0
2016-Nov-25 18:31N 51°25' E 003°44'0 0.0
2016-Nov-25 17:25N 51°25' E 003°44'0 0.0
2016-Nov-25 16:28N 51°25' E 003°44'0 0.0
2016-Nov-25 15:31N 51°25' E 003°44'0 0.0
2016-Nov-25 14:31N 51°25' E 003°44'0 0.0
2016-Nov-25 13:31N 51°25' E 003°44'0 0.0
2016-Nov-25 12:31N 51°25' E 003°44'0 0.0
2016-Nov-25 11:31N 51°25' E 003°44'0 0.0
2016-Nov-25 10:31N 51°25' E 003°44'0 0.0
2016-Nov-25 09:22N 51°25' E 003°44'0 0.0
2016-Nov-25 08:31N 51°25' E 003°44'0 0.0
2016-Nov-25 07:31N 51°25' E 003°44'0 0.0
2016-Nov-25 06:26N 51°25' E 003°44'0 0.0
2016-Nov-25 05:32N 51°25' E 003°44'0 0.0
2016-Nov-25 04:32N 51°25' E 003°44'0 0.0
2016-Nov-25 03:32N 51°25' E 003°44'0 0.0
2016-Nov-25 02:32N 51°25' E 003°44'0 0.0
2016-Nov-25 01:29N 51°25' E 003°44'0 0.0
2016-Nov-25 00:32N 51°25' E 003°44'0 0.0
2016-Nov-24 23:32N 51°25' E 003°44'0 0.0
2016-Nov-24 22:32N 51°25' E 003°44'0 0.0
2016-Nov-24 21:32N 51°25' E 003°44'0 0.0
2016-Nov-24 20:32N 51°25' E 003°44'0 0.0
2016-Nov-24 19:32N 51°25' E 003°44'0 0.0
2016-Nov-24 18:29N 51°25' E 003°44'0 0.0
2016-Nov-24 17:32N 51°25' E 003°44'0 0.0
2016-Nov-24 16:32N 51°25' E 003°44'0 0.0
2016-Nov-24 15:32N 51°25' E 003°44'0 0.0
2016-Nov-24 14:29N 51°25' E 003°44'0 0.0
2016-Nov-24 13:23N 51°25' E 003°44'0 0.0
2016-Nov-24 12:29N 51°25' E 003°44'0 0.0
2016-Nov-24 11:32N 51°25' E 003°44'0 0.0
2016-Nov-24 10:29N 51°25' E 003°44'0 0.0
2016-Nov-24 09:32N 51°25' E 003°44'0 0.0
2016-Nov-24 08:32N 51°25' E 003°44'0 0.0
2016-Nov-24 07:32N 51°25' E 003°44'0 0.0
2016-Nov-24 06:32N 51°25' E 003°44'0 0.0
2016-Nov-24 05:29N 51°25' E 003°44'0 0.0
2016-Nov-24 04:32N 51°25' E 003°44'0 0.0
2016-Nov-24 03:32N 51°25' E 003°44'0 0.0
2016-Nov-24 02:32N 51°25' E 003°44'0 0.0
2016-Nov-24 01:32N 51°25' E 003°44'0 0.0
2016-Nov-24 00:29N 51°25' E 003°44'0 0.0
2016-Nov-23 23:29N 51°25' E 003°44'0 0.0
2016-Nov-23 22:32N 51°25' E 003°44'0 0.0
2016-Nov-23 21:32N 51°25' E 003°44'0 0.0
2016-Nov-23 20:32N 51°25' E 003°44'  
Track history (hours):
 
Tides and Currents Weather Stations Pressure Air Temp Water Temp Dewpoint Dewpoint Depression Visibility Wind Speed Wind Dir Waves Ship Positions

Minerva Anna

Last reported at 2016-Dec-03 19:33 UTC. Time now 2016-Dec-03 19:39 UTC.
Position N 51°05' E 001°30'.

Length 183 m; draft 13 m.

Type: Ship (hazmat cat A). MMSI: 240729000.

Date/timePositionNaut miles runAvg speedWind from/ knotsBaromVisibWave heightAir tempDewpointWater temp
2016-Dec-03 19:33N 51°05' E 001°30'1313.2
2016-Dec-03 18:34N 51°14' E 001°46'1211.7
2016-Dec-03 17:33N 51°24' E 001°56'1110.8
2016-Dec-03 16:33N 51°33' E 002°06'1110.6
2016-Dec-03 15:33N 51°41' E 002°17'1110.7
2016-Dec-03 14:33N 51°49' E 002°29'1211.5
2016-Dec-03 13:33N 51°59' E 002°37'1412.9
2016-Dec-03 12:30N 52°13' E 002°41'1413.4
2016-Dec-03 11:29N 52°25' E 002°49'1813.6
2016-Dec-03 10:11N 52°41' E 003°03'1013.3
2016-Dec-03 09:27N 52°50' E 003°11'2512.1
2016-Dec-03 07:23N 53°13' E 003°24'1111.4
2016-Dec-03 06:26N 53°24' E 003°30'1111.3
2016-Dec-03 05:29N 53°34' E 003°35'33711.7
2016-Dec-02 00:33N 57°47' E 010°11'1111.4
2016-Dec-01 23:33N 57°48' E 010°32'9 8.5
2016-Dec-01 22:33N 57°46' E 010°47'7 7.3
2016-Dec-01 21:33N 57°40' E 010°40'0 0.2
2016-Dec-01 20:33N 57°40' E 010°40'0 0.0
2016-Dec-01 19:33N 57°40' E 010°40'0 0.0
2016-Dec-01 18:27N 57°40' E 010°40'0 0.0
2016-Dec-01 17:18N 57°40' E 010°40'0 0.2
2016-Dec-01 16:33N 57°40' E 010°40'0 0.1
2016-Dec-01 15:33N 57°40' E 010°40'0 0.0
2016-Dec-01 13:30N 57°40' E 010°40'0 0.0
2016-Dec-01 12:33N 57°40' E 010°40'1 1.4
2016-Dec-01 11:33N 57°39' E 010°43'1010.1
2016-Dec-01 10:33N 57°35' E 010°60'1212.1
2016-Dec-01 09:33N 57°30' E 011°21'1212.1
2016-Dec-01 08:33N 57°19' E 011°31'1312.7
2016-Dec-01 07:33N 57°08' E 011°39'7311.9
2016-Dec-01 01:27N 55°58' E 011°01'1111.0
2016-Dec-01 00:28N 55°50' E 010°49'  
2016-Nov-28 09:33N 56°05' E 011°07'5212.8
2016-Nov-28 05:28N 56°52' E 011°48'1313.6
2016-Nov-28 04:33N 57°04' E 011°40'1313.5
2016-Nov-28 03:33N 57°16' E 011°32'1313.4
2016-Nov-28 02:34N 57°29' E 011°22'1312.8
2016-Nov-28 01:33N 57°38' E 011°05'1212.1
2016-Nov-28 00:33N 57°46' E 010°48'10 9.9
2016-Nov-27 23:33N 57°47' E 010°30'1411.7
2016-Nov-27 22:19N 57°45' E 010°03'18012.8
2016-Nov-27 08:19N 55°28' E 006°31'7210.4
2016-Nov-27 01:22N 54°26' E 005°28'910.9
2016-Nov-27 00:34N 54°18' E 005°21'1111.4
2016-Nov-26 23:33N 54°08' E 005°11'1211.7
2016-Nov-26 22:33N 53°57' E 005°05'8 7.6
2016-Nov-26 21:33N 53°50' E 005°01'6 6.5
2016-Nov-26 20:33N 53°44' E 004°58'1 1.2
2016-Nov-26 19:33N 53°44' E 004°57'6 5.7
2016-Nov-26 18:33N 53°40' E 004°52'10 9.7
2016-Nov-26 17:33N 53°30' E 004°46'1211.9
2016-Nov-26 16:33N 53°20' E 004°38'1413.9
2016-Nov-26 15:33N 53°07' E 004°28'1313.3
2016-Nov-26 14:33N 52°55' E 004°18'1414.4
2016-Nov-26 13:33N 52°44' E 004°04'1414.5
2016-Nov-26 12:33N 52°33' E 003°48'1413.7
2016-Nov-26 11:34N 52°24' E 003°31'1414.2
2016-Nov-26 10:33N 52°14' E 003°15'1413.6
2016-Nov-26 09:33N 52°03' E 003°00'1312.9
2016-Nov-26 08:33N 51°54' E 002°46'1212.4
2016-Nov-26 07:33N 51°44' E 002°33'1111.0
2016-Nov-26 06:33N 51°35' E 002°23'1110.5
2016-Nov-26 05:33N 51°27' E 002°13'8 8.0
2016-Nov-26 04:33N 51°22' E 002°22'1413.5
2016-Nov-26 03:33N 51°22' E 002°44'1313.1
2016-Nov-26 02:34N 51°24' E 003°05'1514.7
2016-Nov-26 01:34N 51°25' E 003°28'10 9.6
2016-Nov-26 00:34N 51°25' E 003°44'0 0.0
2016-Nov-25 23:31N 51°25' E 003°44'0 0.0
2016-Nov-25 22:31N 51°25' E 003°44'0 0.0
2016-Nov-25 21:31N 51°25' E 003°44'0 0.0
2016-Nov-25 20:31N 51°25' E 003°44'0 0.0
2016-Nov-25 19:31N 51°25' E 003°44'0 0.0
2016-Nov-25 18:31N 51°25' E 003°44'0 0.0
2016-Nov-25 17:25N 51°25' E 003°44'0 0.0
2016-Nov-25 16:28N 51°25' E 003°44'0 0.0
2016-Nov-25 15:31N 51°25' E 003°44'0 0.0
2016-Nov-25 14:31N 51°25' E 003°44'0 0.0
2016-Nov-25 13:31N 51°25' E 003°44'0 0.0
2016-Nov-25 12:31N 51°25' E 003°44'0 0.0
2016-Nov-25 11:31N 51°25' E 003°44'0 0.0
2016-Nov-25 10:31N 51°25' E 003°44'0 0.0
2016-Nov-25 09:22N 51°25' E 003°44'0 0.0
2016-Nov-25 08:31N 51°25' E 003°44'0 0.0
2016-Nov-25 07:31N 51°25' E 003°44'0 0.0
2016-Nov-25 06:26N 51°25' E 003°44'0 0.0
2016-Nov-25 05:32N 51°25' E 003°44'0 0.0
2016-Nov-25 04:32N 51°25' E 003°44'0 0.0
2016-Nov-25 03:32N 51°25' E 003°44'0 0.0
2016-Nov-25 02:32N 51°25' E 003°44'0 0.0
2016-Nov-25 01:29N 51°25' E 003°44'0 0.0
2016-Nov-25 00:32N 51°25' E 003°44'0 0.0
2016-Nov-24 23:32N 51°25' E 003°44'0 0.0
2016-Nov-24 22:32N 51°25' E 003°44'0 0.0
2016-Nov-24 21:32N 51°25' E 003°44'0 0.0
2016-Nov-24 20:32N 51°25' E 003°44'0 0.0
2016-Nov-24 19:32N 51°25' E 003°44'0 0.0
2016-Nov-24 18:29N 51°25' E 003°44'0 0.0
2016-Nov-24 17:32N 51°25' E 003°44'0 0.0
2016-Nov-24 16:32N 51°25' E 003°44'0 0.0
2016-Nov-24 15:32N 51°25' E 003°44'0 0.0
2016-Nov-24 14:29N 51°25' E 003°44'0 0.0
2016-Nov-24 13:23N 51°25' E 003°44'0 0.0
2016-Nov-24 12:29N 51°25' E 003°44'0 0.0
2016-Nov-24 11:32N 51°25' E 003°44'0 0.0
2016-Nov-24 10:29N 51°25' E 003°44'0 0.0
2016-Nov-24 09:32N 51°25' E 003°44'0 0.0
2016-Nov-24 08:32N 51°25' E 003°44'0 0.0
2016-Nov-24 07:32N 51°25' E 003°44'0 0.0
2016-Nov-24 06:32N 51°25' E 003°44'0 0.0
2016-Nov-24 05:29N 51°25' E 003°44'0 0.0
2016-Nov-24 04:32N 51°25' E 003°44'0 0.0
2016-Nov-24 03:32N 51°25' E 003°44'0 0.0
2016-Nov-24 02:32N 51°25' E 003°44'0 0.0
2016-Nov-24 01:32N 51°25' E 003°44'0 0.0
2016-Nov-24 00:29N 51°25' E 003°44'0 0.0
2016-Nov-23 23:29N 51°25' E 003°44'0 0.0
2016-Nov-23 22:32N 51°25' E 003°44'0 0.0
2016-Nov-23 21:32N 51°25' E 003°44'0 0.0
2016-Nov-23 20:32N 51°25' E 003°44'  

Dump ship's entire track history